createdAt,value
2023-05-19T00:01:15.272Z,3.63
2023-05-19T00:03:57.537Z,3.80
2023-05-19T00:06:26.863Z,3.28
2023-05-19T00:08:58.713Z,3.47
2023-05-19T00:11:26.959Z,3.38
2023-05-19T00:13:54.846Z,3.78
2023-05-19T00:16:22.932Z,3.80
2023-05-19T00:18:50.201Z,4.22
2023-05-19T00:21:17.372Z,3.78
2023-05-19T00:23:44.101Z,3.58
2023-05-19T00:26:11.047Z,4.57
2023-05-19T00:28:37.779Z,3.53
2023-05-19T00:31:06.003Z,4.90
2023-05-19T00:33:36.365Z,3.70
2023-05-19T00:36:04.035Z,3.63
2023-05-19T00:38:35.648Z,3.92
2023-05-19T00:41:03.705Z,3.55
2023-05-19T00:43:30.974Z,3.88
2023-05-19T00:45:58.413Z,3.90
2023-05-19T00:48:26.370Z,3.65
2023-05-19T00:50:56.025Z,4.55
2023-05-19T00:53:24.542Z,3.70
2023-05-19T00:55:51.297Z,3.45
2023-05-19T00:58:19.087Z,4.10
2023-05-19T01:00:45.973Z,3.70
2023-05-19T01:03:13.046Z,3.95
2023-05-19T01:05:47.653Z,3.63
2023-05-19T01:08:14.351Z,3.58
2023-05-19T01:10:41.176Z,3.78
2023-05-19T01:13:09.459Z,3.70
2023-05-19T01:16:07.567Z,4.05
2023-05-19T01:18:43.326Z,3.42
2023-05-19T01:21:26.182Z,3.95
2023-05-19T01:24:09.112Z,3.65
2023-05-19T01:26:56.442Z,4.45
2023-05-19T01:29:41.287Z,4.00
2023-05-19T01:32:10.651Z,4.25
2023-05-19T01:34:42.392Z,4.38
2023-05-19T01:37:10.148Z,4.03
2023-05-19T01:39:37.846Z,3.90
2023-05-19T01:42:05.931Z,3.75
2023-05-19T01:44:33.889Z,3.78
2023-05-19T01:47:01.468Z,4.28
2023-05-19T01:49:28.567Z,3.80
2023-05-19T01:51:56.069Z,4.40
2023-05-19T01:54:23.097Z,4.93
2023-05-19T01:56:58.675Z,4.28
2023-05-19T01:59:59.516Z,4.13
2023-05-19T02:02:41.066Z,4.32
2023-05-19T02:05:18.533Z,4.35
2023-05-19T02:07:56.735Z,4.25
2023-05-19T02:10:31.094Z,4.00
2023-05-19T02:13:01.201Z,4.82
2023-05-19T02:15:35.102Z,4.18
2023-05-19T02:18:04.694Z,4.38
2023-05-19T02:20:32.073Z,4.85
2023-05-19T02:22:58.948Z,4.65
2023-05-19T02:25:25.732Z,4.10
2023-05-19T02:27:52.606Z,4.55
2023-05-19T02:30:19.391Z,4.80
2023-05-19T02:32:46.818Z,4.95
2023-05-19T02:35:14.487Z,5.13
2023-05-19T02:37:41.252Z,4.82
2023-05-19T02:40:09.445Z,4.75
2023-05-19T02:42:36.366Z,5.47
2023-05-19T02:45:04.570Z,5.18
2023-05-19T02:47:31.316Z,5.43
2023-05-19T02:49:59.055Z,5.47
2023-05-19T02:52:25.860Z,5.50
2023-05-19T02:54:52.608Z,5.43
2023-05-19T02:57:19.434Z,5.50
2023-05-19T02:59:46.245Z,5.90
2023-05-19T03:02:13.176Z,5.50
2023-05-19T03:04:42.158Z,5.82
2023-05-19T03:07:10.257Z,5.90
2023-05-19T03:09:37.723Z,5.60
2023-05-19T03:12:06.561Z,5.95
2023-05-19T03:14:35.047Z,5.75
2023-05-19T03:17:01.814Z,6.10
2023-05-19T03:19:29.122Z,6.30
2023-05-19T03:21:56.502Z,6.20
2023-05-19T03:24:24.464Z,5.93
2023-05-19T03:26:51.673Z,6.25
2023-05-19T03:29:18.470Z,5.70
2023-05-19T03:31:45.519Z,6.10
2023-05-19T03:34:12.234Z,5.65
2023-05-19T03:36:39.928Z,5.63
2023-05-19T03:39:07.344Z,6.70
2023-05-19T03:41:34.579Z,5.88
2023-05-19T03:44:01.816Z,6.43
2023-05-19T03:46:28.629Z,6.25
2023-05-19T03:48:55.558Z,6.88
2023-05-19T03:51:23.485Z,5.93
2023-05-19T03:53:50.192Z,6.20
2023-05-19T03:56:18.212Z,6.88
2023-05-19T03:58:47.967Z,6.80
2023-05-19T04:01:14.667Z,6.60
2023-05-19T04:03:41.732Z,6.75
2023-05-19T04:06:08.869Z,7.28
2023-05-19T04:08:35.915Z,6.70
2023-05-19T04:11:02.614Z,7.10
2023-05-19T04:13:31.599Z,7.40
2023-05-19T04:15:58.466Z,6.45
2023-05-19T04:18:28.206Z,6.88
2023-05-19T04:20:55.812Z,7.63
2023-05-19T04:23:22.534Z,6.90
2023-05-19T04:25:50.465Z,6.78
2023-05-19T04:28:18.041Z,7.75
2023-05-19T04:30:46.680Z,7.55
2023-05-19T04:35:40.802Z,7.35
2023-05-19T04:38:07.751Z,7.75
2023-05-19T04:40:34.826Z,7.80
2023-05-19T04:43:02.221Z,6.97
2023-05-19T04:45:29.249Z,6.90
2023-05-19T04:47:58.197Z,7.30
2023-05-19T04:50:25.320Z,6.90
2023-05-19T04:52:52.155Z,7.40
2023-05-19T04:55:18.987Z,8.23
2023-05-19T04:57:45.728Z,7.78
2023-05-19T05:00:14.405Z,7.75
2023-05-19T05:05:10.209Z,7.47
2023-05-19T05:07:37.008Z,7.65
2023-05-19T05:10:04.295Z,7.47
2023-05-19T05:12:32.164Z,8.27
2023-05-19T05:14:59.495Z,8.52
2023-05-19T05:17:27.147Z,6.65
2023-05-19T05:19:54.498Z,8.77
2023-05-19T05:22:21.465Z,8.23
2023-05-19T05:24:49.079Z,8.02
2023-05-19T05:27:16.917Z,7.32
2023-05-19T05:29:43.749Z,8.03
2023-05-19T05:32:10.574Z,7.88
2023-05-19T05:34:38.162Z,8.10
2023-05-19T05:37:06.867Z,9.50
2023-05-19T05:42:01.326Z,8.88
2023-05-19T05:44:28.450Z,8.10
2023-05-19T05:46:55.840Z,8.48
2023-05-19T05:49:23.116Z,8.45
2023-05-19T05:52:05.169Z,8.25
2023-05-19T05:54:33.830Z,8.68
2023-05-19T05:57:02.528Z,8.00
2023-05-19T06:01:56.922Z,9.23
2023-05-19T06:04:25.653Z,7.97
2023-05-19T06:09:20.090Z,9.23
2023-05-19T06:11:47.347Z,8.80
2023-05-19T06:14:14.500Z,8.52
2023-05-19T06:16:41.673Z,8.20
2023-05-19T06:19:09.117Z,8.68
2023-05-19T06:21:36.361Z,9.05
2023-05-19T06:24:03.502Z,8.40
2023-05-19T06:26:30.789Z,8.40
2023-05-19T06:28:57.993Z,9.23
2023-05-19T06:31:26.635Z,7.97
2023-05-19T06:33:54.199Z,8.90
2023-05-19T06:36:22.794Z,8.52
2023-05-19T06:38:49.965Z,8.00
2023-05-19T06:41:17.168Z,8.65
2023-05-19T06:43:44.348Z,9.02
2023-05-19T06:46:13.148Z,8.38
2023-05-19T06:48:40.710Z,8.63
2023-05-19T06:51:10.178Z,8.32
2023-05-19T06:53:37.357Z,9.60
2023-05-19T06:56:04.712Z,8.57
2023-05-19T06:58:31.936Z,8.55
2023-05-19T07:00:59.188Z,8.43
2023-05-19T07:03:27.276Z,9.43
2023-05-19T07:05:54.607Z,8.70
2023-05-19T07:08:21.826Z,8.48
2023-05-19T07:10:49.004Z,8.38
2023-05-19T07:13:16.388Z,8.95
2023-05-19T07:15:43.637Z,8.07
2023-05-19T07:18:10.901Z,7.72
2023-05-19T07:20:38.175Z,8.38
2023-05-19T07:23:05.424Z,7.53
2023-05-19T07:25:33.227Z,8.02
2023-05-19T07:28:00.016Z,7.17
2023-05-19T07:30:28.550Z,7.55
2023-05-19T07:32:55.879Z,7.10
2023-05-19T07:35:23.167Z,6.65
2023-05-19T07:37:51.066Z,6.68
2023-05-19T07:40:18.279Z,6.80
2023-05-19T07:42:45.462Z,6.32
2023-05-19T07:45:12.601Z,7.35
2023-05-19T07:47:39.793Z,6.35
2023-05-19T07:50:07.357Z,6.57
2023-05-19T07:52:34.495Z,5.75
2023-05-19T07:55:01.618Z,5.95
2023-05-19T07:57:28.871Z,5.13
2023-05-19T07:59:55.989Z,6.05
2023-05-19T08:02:23.238Z,5.07
2023-05-19T08:04:50.616Z,4.90
2023-05-19T08:07:17.840Z,4.78
2023-05-19T08:09:45.116Z,6.53
2023-05-19T08:12:12.327Z,5.68
2023-05-19T08:14:39.517Z,4.88
2023-05-19T08:17:08.467Z,4.75
2023-05-19T08:19:35.730Z,5.57
2023-05-19T08:22:03.650Z,3.80
2023-05-19T08:24:30.538Z,2.83
2023-05-19T08:26:57.428Z,3.25
2023-05-19T08:29:24.267Z,2.80
2023-05-19T08:31:53.085Z,2.95
2023-05-19T08:34:20.894Z,2.38
2023-05-19T08:36:48.186Z,3.15
2023-05-19T08:39:16.640Z,1.98
2023-05-19T08:41:44.230Z,2.25
2023-05-19T08:44:11.955Z,2.50
2023-05-19T08:46:39.243Z,2.13
2023-05-19T08:49:12.164Z,2.47
2023-05-19T08:51:49.641Z,2.17
2023-05-19T08:54:18.706Z,2.00
2023-05-19T08:56:46.515Z,2.60
2023-05-19T08:59:17.055Z,2.00
2023-05-19T09:01:47.203Z,2.10
2023-05-19T09:04:14.689Z,2.53
2023-05-19T09:06:42.351Z,3.13
2023-05-19T09:09:09.786Z,1.97
2023-05-19T09:11:39.895Z,2.35
2023-05-19T09:14:07.081Z,1.92
2023-05-19T09:16:34.497Z,2.30
2023-05-19T09:19:01.951Z,1.90
2023-05-19T09:21:32.555Z,1.40
2023-05-19T09:24:04.498Z,1.88
2023-05-19T09:26:39.856Z,2.15
2023-05-19T09:29:14.148Z,1.85
2023-05-19T09:31:48.987Z,2.10
2023-05-19T09:34:16.465Z,1.73
2023-05-19T09:36:43.697Z,2.10
2023-05-19T09:39:14.865Z,1.60
2023-05-19T09:41:41.963Z,1.50
2023-05-19T09:44:23.023Z,2.25
2023-05-19T09:46:53.737Z,1.58
2023-05-19T09:49:25.342Z,2.28
2023-05-19T09:52:00.412Z,1.85
2023-05-19T09:54:28.457Z,1.52
2023-05-19T09:56:59.405Z,1.92
2023-05-19T09:59:28.513Z,1.63
2023-05-19T10:01:59.357Z,1.73
2023-05-19T10:04:30.364Z,2.00
2023-05-19T10:07:05.424Z,2.80
2023-05-19T10:09:33.703Z,1.73
2023-05-19T10:12:00.693Z,1.88
2023-05-19T10:14:29.552Z,1.83
2023-05-19T10:16:59.836Z,1.80
2023-05-19T10:19:28.701Z,2.00
2023-05-19T10:21:56.746Z,1.60
2023-05-19T10:24:23.543Z,2.42
2023-05-19T10:27:01.283Z,2.17
2023-05-19T10:29:31.332Z,2.28
2023-05-19T10:32:01.639Z,2.08
2023-05-19T10:34:29.400Z,1.70
2023-05-19T10:36:56.562Z,2.00
2023-05-19T10:39:27.817Z,1.73
2023-05-19T10:41:58.045Z,2.00
2023-05-19T10:44:45.193Z,2.03
2023-05-19T10:47:12.682Z,2.40
2023-05-19T10:49:40.450Z,2.17
2023-05-19T10:52:25.652Z,1.77
2023-05-19T10:54:54.721Z,1.73
2023-05-19T10:57:28.365Z,1.70
2023-05-19T10:59:56.594Z,1.70
2023-05-19T11:02:43.895Z,1.58
2023-05-19T11:05:14.579Z,2.27
2023-05-19T11:07:43.584Z,1.95
2023-05-19T11:10:11.012Z,2.10
2023-05-19T11:12:43.045Z,2.15
2023-05-19T11:15:15.008Z,2.63
2023-05-19T11:17:45.264Z,3.05
2023-05-19T11:20:25.676Z,2.00
2023-05-19T11:23:17.824Z,1.90
2023-05-19T11:25:53.764Z,2.20
2023-05-19T11:28:25.755Z,2.17
2023-05-19T11:30:55.037Z,2.10
2023-05-19T11:33:27.186Z,1.73
2023-05-19T11:36:00.064Z,1.73
2023-05-19T11:38:29.882Z,2.25
2023-05-19T11:40:57.196Z,1.75
2023-05-19T11:43:24.970Z,1.88
2023-05-19T11:45:52.324Z,2.17
2023-05-19T11:48:21.573Z,2.00
2023-05-19T11:50:48.890Z,2.10
2023-05-19T11:53:19.863Z,1.90
2023-05-19T11:55:48.106Z,2.40
2023-05-19T11:58:15.792Z,2.05
2023-05-19T12:00:45.964Z,1.92
2023-05-19T12:03:13.355Z,2.40
2023-05-19T12:05:45.477Z,2.40
2023-05-19T12:08:12.973Z,2.13
2023-05-19T12:10:40.350Z,2.30
2023-05-19T12:13:10.690Z,2.35
2023-05-19T12:15:38.697Z,2.47
2023-05-19T12:18:05.741Z,1.85
2023-05-19T12:20:35.322Z,2.58
2023-05-19T12:23:03.114Z,1.90
2023-05-19T12:25:31.467Z,2.22
2023-05-19T12:30:29.802Z,2.28
2023-05-19T12:32:58.172Z,2.78
2023-05-19T12:38:07.159Z,2.28
2023-05-19T12:40:35.406Z,2.50
2023-05-19T12:43:03.398Z,2.58
2023-05-19T12:45:34.854Z,3.05
2023-05-19T12:48:16.680Z,2.58
2023-05-19T12:50:45.109Z,2.85
2023-05-19T12:53:13.197Z,2.60
2023-05-19T12:55:42.329Z,3.00
2023-05-19T12:58:09.765Z,2.60
2023-05-19T13:00:41.187Z,2.30
2023-05-19T13:03:10.257Z,3.30
2023-05-19T13:05:43.474Z,2.70
2023-05-19T13:08:11.632Z,2.38
2023-05-19T13:10:39.777Z,2.55
2023-05-19T13:13:07.425Z,2.75
2023-05-19T13:15:35.415Z,1.70
2023-05-19T13:18:03.742Z,2.72
2023-05-19T13:22:58.362Z,2.35
2023-05-19T13:25:25.554Z,2.58
2023-05-19T13:27:52.796Z,3.50
2023-05-19T13:30:20.941Z,2.22
2023-05-19T13:32:48.372Z,2.20
2023-05-19T13:35:15.814Z,2.25
2023-05-19T13:37:43.078Z,2.75
2023-05-19T13:40:10.537Z,2.10
2023-05-19T13:42:38.064Z,2.22
2023-05-19T13:45:05.527Z,2.00
2023-05-19T13:47:32.980Z,1.98
2023-05-19T13:50:00.236Z,2.08
2023-05-19T13:52:29.044Z,2.28
2023-05-19T13:54:57.884Z,2.47
2023-05-19T13:57:28.351Z,2.53
2023-05-19T14:00:02.418Z,2.80
2023-05-19T14:02:30.518Z,2.45
2023-05-19T14:04:57.981Z,2.00
2023-05-19T14:07:25.764Z,2.50
2023-05-19T14:09:54.340Z,2.85
2023-05-19T14:14:55.168Z,2.15
2023-05-19T14:17:22.418Z,3.08
2023-05-19T14:19:49.745Z,4.25
2023-05-19T14:22:18.200Z,2.53
2023-05-19T14:27:13.487Z,2.65
2023-05-19T14:29:40.927Z,2.35
2023-05-19T14:32:08.491Z,2.42
2023-05-19T14:34:35.759Z,2.27
2023-05-19T14:37:02.983Z,2.22
2023-05-19T14:39:31.301Z,2.00
2023-05-19T14:41:59.738Z,1.80
2023-05-19T14:46:53.532Z,2.50
2023-05-19T14:49:20.276Z,1.75
2023-05-19T14:51:47.029Z,2.10
2023-05-19T14:54:13.805Z,2.03
2023-05-19T14:56:40.649Z,2.10
2023-05-19T14:59:07.553Z,2.17
2023-05-19T15:01:34.331Z,1.58
2023-05-19T15:04:01.148Z,1.88
2023-05-19T15:06:27.914Z,1.90
2023-05-19T15:08:54.637Z,1.83
2023-05-19T15:11:22.462Z,2.40
2023-05-19T15:13:49.296Z,1.92
2023-05-19T15:16:17.468Z,2.38
2023-05-19T15:18:45.181Z,1.70
2023-05-19T15:21:13.246Z,1.75
2023-05-19T15:23:40.019Z,1.65
2023-05-19T15:26:07.124Z,1.80
2023-05-19T15:28:34.216Z,1.65
2023-05-19T15:31:01.095Z,2.80
2023-05-19T15:33:27.886Z,3.15
2023-05-19T15:35:54.680Z,1.90
2023-05-19T15:38:21.446Z,3.58
2023-05-19T15:40:49.413Z,2.95
2023-05-19T15:43:17.309Z,2.35
2023-05-19T15:45:44.056Z,2.67
2023-05-19T15:48:11.516Z,2.03
2023-05-19T15:50:38.561Z,1.93
2023-05-19T15:53:07.669Z,1.95
2023-05-19T15:55:34.498Z,2.00
2023-05-19T15:58:01.197Z,2.20
2023-05-19T16:00:27.897Z,4.47
2023-05-19T16:02:54.742Z,2.00
2023-05-19T16:05:21.565Z,1.75
2023-05-19T16:07:48.322Z,2.58
2023-05-19T16:10:15.306Z,1.80
2023-05-19T16:12:41.998Z,1.85
2023-05-19T16:15:09.318Z,1.40
2023-05-19T16:17:36.082Z,2.88
2023-05-19T16:20:03.096Z,2.17
2023-05-19T16:22:30.563Z,1.80
2023-05-19T16:24:57.406Z,2.20
2023-05-19T16:27:24.184Z,2.20
2023-05-19T16:29:53.457Z,2.10
2023-05-19T16:32:20.431Z,1.52
2023-05-19T16:34:47.275Z,1.88
2023-05-19T16:37:13.984Z,2.08
2023-05-19T16:39:41.471Z,1.70
2023-05-19T16:42:08.286Z,1.93
2023-05-19T16:44:35.055Z,1.75
2023-05-19T16:47:01.869Z,1.95
2023-05-19T16:49:28.637Z,1.40
2023-05-19T16:51:55.845Z,1.63
2023-05-19T16:54:25.826Z,1.73
2023-05-19T16:56:54.653Z,1.98
2023-05-19T16:59:21.529Z,1.67
2023-05-19T17:01:48.388Z,2.10
2023-05-19T17:04:15.421Z,1.85
2023-05-19T17:06:42.263Z,2.00
2023-05-19T17:09:09.088Z,2.28
2023-05-19T17:11:35.948Z,1.65
2023-05-19T17:14:07.518Z,1.90
2023-05-19T17:16:35.738Z,1.65
2023-05-19T17:19:03.518Z,1.50
2023-05-19T17:21:31.852Z,2.13
2023-05-19T17:23:58.646Z,1.55
2023-05-19T17:26:25.456Z,1.98
2023-05-19T17:28:52.385Z,2.15
2023-05-19T17:31:19.084Z,1.65
2023-05-19T17:33:46.182Z,1.70
2023-05-19T17:36:13.828Z,1.67
2023-05-19T17:38:41.780Z,1.90
2023-05-19T17:41:14.068Z,2.50
2023-05-19T17:43:41.901Z,2.13
2023-05-19T17:46:09.047Z,1.83
2023-05-19T17:48:39.917Z,2.17
2023-05-19T17:51:09.690Z,2.03
2023-05-19T17:53:36.921Z,1.60
2023-05-19T17:56:06.911Z,2.13
2023-05-19T17:58:34.014Z,1.55
2023-05-19T18:01:00.938Z,2.40
2023-05-19T18:03:28.206Z,1.90
2023-05-19T18:05:55.258Z,1.90
2023-05-19T18:08:22.386Z,1.85
2023-05-19T18:10:51.668Z,2.15
2023-05-19T18:13:18.660Z,1.95
2023-05-19T18:15:45.436Z,1.92
2023-05-19T18:18:12.391Z,1.65
2023-05-19T18:20:41.097Z,1.88
2023-05-19T18:23:07.900Z,1.90
2023-05-19T18:25:35.666Z,1.80
2023-05-19T18:28:02.420Z,2.10
2023-05-19T18:30:30.259Z,2.35
2023-05-19T18:32:57.156Z,1.67
2023-05-19T18:35:24.031Z,1.90
2023-05-19T18:37:51.125Z,1.60
2023-05-19T18:40:17.936Z,2.10
2023-05-19T18:42:44.749Z,1.95
2023-05-19T18:45:11.827Z,1.77
2023-05-19T18:47:38.598Z,1.95
2023-05-19T18:50:06.965Z,2.17
2023-05-19T18:52:33.756Z,1.90
2023-05-19T18:55:01.161Z,1.85
2023-05-19T18:57:27.904Z,1.98
2023-05-19T18:59:54.684Z,2.03
2023-05-19T19:02:21.416Z,2.47
2023-05-19T19:04:48.355Z,1.98
2023-05-19T19:07:16.183Z,2.30
2023-05-19T19:09:43.833Z,2.20
2023-05-19T19:12:11.040Z,2.00
2023-05-19T19:14:38.543Z,2.28
2023-05-19T19:17:05.585Z,2.20
2023-05-19T19:19:33.016Z,2.90
2023-05-19T19:21:59.854Z,2.30
2023-05-19T19:24:28.429Z,2.72
2023-05-19T19:29:21.982Z,2.00
2023-05-19T19:31:48.948Z,1.83
2023-05-19T19:34:15.943Z,2.47
2023-05-19T19:36:43.842Z,1.70
2023-05-19T19:39:10.766Z,1.92
2023-05-19T19:41:37.645Z,2.83
2023-05-19T19:44:04.948Z,3.95
2023-05-19T19:46:32.242Z,2.75
2023-05-19T19:49:00.377Z,1.98
2023-05-19T19:51:27.998Z,1.83
2023-05-19T19:53:55.507Z,2.60
2023-05-19T19:56:24.627Z,2.20
2023-05-19T19:58:51.904Z,1.90
2023-05-19T20:01:23.619Z,2.15
2023-05-19T20:03:51.176Z,2.22
2023-05-19T20:06:18.475Z,2.05
2023-05-19T20:08:45.653Z,2.45
2023-05-19T20:11:12.819Z,3.33
2023-05-19T20:13:39.949Z,2.75
2023-05-19T20:16:07.315Z,2.63
2023-05-19T20:18:34.458Z,3.00
2023-05-19T20:21:01.675Z,3.65
2023-05-19T20:23:28.853Z,3.65
2023-05-19T20:26:12.084Z,3.97
2023-05-19T20:28:40.355Z,3.45
2023-05-19T20:31:07.674Z,3.03
2023-05-19T20:33:34.892Z,3.25
2023-05-19T20:36:02.129Z,3.42
2023-05-19T20:38:29.537Z,3.30
2023-05-19T20:40:56.731Z,3.35
2023-05-19T20:43:23.874Z,3.55
2023-05-19T20:45:51.584Z,3.22
2023-05-19T20:48:18.831Z,3.85
2023-05-19T20:50:46.267Z,3.22
2023-05-19T20:53:13.555Z,3.45
2023-05-19T20:55:41.241Z,3.38
2023-05-19T20:58:08.446Z,3.60
2023-05-19T21:00:36.025Z,4.15
2023-05-19T21:03:05.018Z,3.75
2023-05-19T21:05:32.398Z,3.10
2023-05-19T21:07:59.651Z,4.57
2023-05-19T21:10:26.941Z,2.83
2023-05-19T21:12:54.133Z,3.53
2023-05-19T21:15:21.455Z,3.42
2023-05-19T21:17:48.572Z,3.30
2023-05-19T21:20:15.758Z,3.10
2023-05-19T21:22:42.988Z,2.90
2023-05-19T21:25:10.619Z,2.80
2023-05-19T21:27:39.442Z,3.27
2023-05-19T21:30:06.989Z,2.95
2023-05-19T21:32:35.389Z,3.90
2023-05-19T21:35:02.540Z,3.28
2023-05-19T21:37:29.681Z,3.45
2023-05-19T21:39:56.844Z,2.85
2023-05-19T21:42:23.955Z,3.05
2023-05-19T21:44:50.735Z,3.00
2023-05-19T21:47:17.463Z,2.58
2023-05-19T21:49:44.329Z,2.70
2023-05-19T21:52:11.120Z,3.10
2023-05-19T21:54:37.950Z,2.70
2023-05-19T21:57:04.941Z,3.47
2023-05-19T21:59:31.683Z,3.78
2023-05-19T22:01:58.808Z,3.22
2023-05-19T22:04:25.665Z,3.97
2023-05-19T22:06:52.454Z,3.08
2023-05-19T22:09:19.173Z,2.63
2023-05-19T22:11:46.294Z,2.88
2023-05-19T22:14:14.331Z,3.17
2023-05-19T22:16:41.069Z,3.00
2023-05-19T22:19:08.141Z,3.05
2023-05-19T22:21:35.013Z,3.15
2023-05-19T22:24:01.832Z,3.22
2023-05-19T22:26:28.762Z,2.95
2023-05-19T22:28:55.739Z,2.95
2023-05-19T22:31:22.508Z,2.95
2023-05-19T22:33:50.298Z,2.70
2023-05-19T22:36:17.093Z,2.90
2023-05-19T22:38:43.818Z,3.30
2023-05-19T22:41:10.641Z,2.92
2023-05-19T22:43:37.436Z,3.08
2023-05-19T22:46:04.425Z,2.80
2023-05-19T22:48:31.637Z,3.10
2023-05-19T22:50:58.466Z,3.03
2023-05-19T22:53:25.196Z,3.15
2023-05-19T22:55:51.890Z,3.03
2023-05-19T22:58:18.948Z,3.10
2023-05-19T23:00:45.607Z,2.60
2023-05-19T23:03:13.528Z,2.53
2023-05-19T23:05:40.575Z,2.85
2023-05-19T23:08:07.300Z,3.03
2023-05-19T23:10:34.023Z,3.17
2023-05-19T23:13:00.804Z,2.72
2023-05-19T23:15:27.496Z,3.40
2023-05-19T23:17:54.255Z,3.10
2023-05-19T23:20:21.224Z,2.80
2023-05-19T23:22:47.931Z,3.45
2023-05-19T23:25:14.706Z,3.40
2023-05-19T23:27:42.501Z,3.55
2023-05-19T23:30:09.545Z,3.05
2023-05-19T23:32:36.420Z,3.15
2023-05-19T23:35:13.813Z,3.00
2023-05-19T23:37:40.809Z,3.38
2023-05-19T23:40:08.615Z,3.70
2023-05-19T23:42:35.638Z,3.10
2023-05-19T23:45:02.822Z,3.20
2023-05-19T23:47:29.762Z,3.40
2023-05-19T23:49:56.551Z,4.10
2023-05-19T23:52:23.283Z,3.50
2023-05-19T23:54:50.271Z,3.22
2023-05-19T23:57:17.076Z,3.03
2023-05-19T23:59:43.841Z,3.53
